Time;durP1;ratioP1;P1;durP2;ratioP2;P2;SDS_P1;SDS_P2;PMS_P1;PMS_P2;Temp;Humidity;BMP_temperature;BMP_pressure;BME280_temperature;BME280_humidity;BME280_pressure;Samples;Min_cycle;Max_cycle;Signal;HPM_P1;HPM_P2
2020/12/04 00:00:39;;;;;;;5.80;4.65;;;4.70;99.90;;;;;;5018095;28;20208;-82
2020/12/04 00:03:05;;;;;;;6.05;4.78;;;4.80;99.90;;;;;;5018596;28;20195;-82
2020/12/04 00:05:32;;;;;;;4.95;4.03;;;4.80;99.90;;;;;;5018292;28;20204;-81
2020/12/04 00:07:58;;;;;;;4.55;4.05;;;4.70;99.90;;;;;;5017223;28;20228;-83
2020/12/04 00:10:25;;;;;;;6.20;5.45;;;4.70;99.90;;;;;;5006415;28;20761;-82
2020/12/04 00:12:52;;;;;;;12.07;6.13;;;4.60;99.90;;;;;;5018412;28;20800;-82
2020/12/04 00:15:18;;;;;;;8.77;6.45;;;4.60;99.90;;;;;;5017274;28;20192;-83
2020/12/04 00:17:44;;;;;;;7.47;5.63;;;4.60;99.90;;;;;;5017738;28;20208;-82
2020/12/04 00:20:10;;;;;;;5.50;4.90;;;4.60;99.90;;;;;;5017727;28;20558;-81
2020/12/04 00:22:37;;;;;;;7.72;5.53;;;4.60;99.90;;;;;;5018374;28;20223;-82
2020/12/04 00:25:03;;;;;;;9.82;6.65;;;4.60;99.90;;;;;;5018209;28;20196;-82
2020/12/04 00:27:29;;;;;;;7.30;4.50;;;4.50;99.90;;;;;;5017420;28;20306;-81
2020/12/04 00:29:56;;;;;;;7.68;5.20;;;4.50;99.90;;;;;;5017962;28;20197;-81
2020/12/04 00:32:22;;;;;;;6.75;5.30;;;4.50;99.90;;;;;;5017822;28;20203;-81
2020/12/04 00:34:49;;;;;;;8.80;6.65;;;4.40;99.90;;;;;;5017389;28;20199;-82
2020/12/04 00:37:15;;;;;;;7.47;5.72;;;4.40;99.90;;;;;;5001628;28;20191;-81
2020/12/04 00:39:41;;;;;;;7.70;5.55;;;4.30;99.90;;;;;;5017450;28;20283;-84
2020/12/04 00:42:08;;;;;;;6.68;5.45;;;4.30;99.90;;;;;;5012317;28;20570;-83
2020/12/04 00:44:35;;;;;;;5.57;5.05;;;4.30;99.90;;;;;;5018240;28;20188;-84
2020/12/04 00:47:02;;;;;;;6.72;5.53;;;4.30;99.90;;;;;;5017249;28;20203;-82
2020/12/04 00:49:29;;;;;;;7.50;5.30;;;4.30;99.90;;;;;;5016758;28;20208;-82
2020/12/04 00:51:55;;;;;;;9.45;5.65;;;4.30;99.90;;;;;;5017403;28;20180;-81
2020/12/04 00:54:22;;;;;;;10.05;5.10;;;4.30;99.90;;;;;;5017174;28;20191;-81
2020/12/04 00:56:49;;;;;;;6.47;4.68;;;4.30;99.90;;;;;;5017059;28;20617;-83
2020/12/04 00:59:16;;;;;;;8.07;5.25;;;4.30;99.90;;;;;;5014813;28;20922;-82
2020/12/04 01:01:42;;;;;;;8.20;5.57;;;4.30;99.90;;;;;;5016944;28;20245;-85
2020/12/04 01:04:09;;;;;;;6.95;5.47;;;4.30;99.90;;;;;;5018307;28;20207;-84
2020/12/04 01:06:36;;;;;;;7.72;3.70;;;4.30;99.90;;;;;;5017273;28;20192;-82
2020/12/04 01:09:03;;;;;;;5.38;4.28;;;4.40;99.90;;;;;;5016939;28;20224;-82
2020/12/04 01:11:31;;;;;;;5.72;4.32;;;4.40;99.90;;;;;;5015765;28;20207;-83
2020/12/04 01:13:57;;;;;;;6.70;4.72;;;4.40;99.90;;;;;;5009306;28;20243;-81
2020/12/04 01:16:23;;;;;;;5.65;4.53;;;4.40;99.90;;;;;;5017336;28;20197;-81
2020/12/04 01:18:50;;;;;;;5.82;4.63;;;4.40;99.90;;;;;;5018256;28;20580;-84
2020/12/04 01:21:17;;;;;;;4.85;4.30;;;4.50;99.90;;;;;;5017720;28;20223;-83
2020/12/04 01:23:44;;;;;;;8.80;4.00;;;4.50;99.90;;;;;;5018260;28;20203;-83
2020/12/04 01:26:10;;;;;;;6.00;4.60;;;4.50;99.90;;;;;;5018015;28;20565;-85
2020/12/04 01:28:36;;;;;;;6.43;5.38;;;4.50;99.90;;;;;;5002749;28;20212;-84
2020/12/04 01:31:03;;;;;;;4.28;3.67;;;4.50;99.90;;;;;;5018175;28;20188;-83
2020/12/04 01:33:29;;;;;;;5.10;4.03;;;4.50;99.90;;;;;;5019063;28;20195;-81
2020/12/04 01:35:55;;;;;;;6.40;4.70;;;4.50;99.90;;;;;;5017936;28;20192;-82
2020/12/04 01:38:22;;;;;;;6.78;5.55;;;4.50;99.90;;;;;;5010853;28;20224;-82
2020/12/04 01:40:49;;;;;;;6.97;5.75;;;4.50;99.90;;;;;;5006485;28;20216;-85
2020/12/04 01:43:15;;;;;;;5.13;4.20;;;4.40;99.90;;;;;;5018033;28;20187;-82
2020/12/04 01:45:41;;;;;;;5.72;4.45;;;4.40;99.90;;;;;;5016099;28;20195;-83
2020/12/04 01:48:07;;;;;;;5.30;4.38;;;4.40;99.90;;;;;;5017723;28;20295;-80
2020/12/04 01:50:34;;;;;;;4.70;4.03;;;4.40;99.90;;;;;;5018847;28;20192;-83
2020/12/04 01:53:00;;;;;;;7.10;4.90;;;4.40;99.90;;;;;;5017964;28;20196;-82
2020/12/04 01:55:28;;;;;;;4.70;4.15;;;4.40;99.90;;;;;;5016221;28;20192;-82
2020/12/04 01:57:54;;;;;;;4.95;4.45;;;4.40;99.90;;;;;;5016763;28;20220;-83
2020/12/04 02:00:21;;;;;;;4.18;3.78;;;4.40;99.90;;;;;;5015950;28;20199;-84
2020/12/04 02:02:48;;;;;;;4.35;3.67;;;4.40;99.90;;;;;;5015861;28;20664;-82
2020/12/04 02:05:15;;;;;;;5.45;4.32;;;4.40;99.90;;;;;;5017166;28;20259;-82
2020/12/04 02:07:49;;;;;;;5.55;4.68;;;4.40;99.90;;;;;;5013351;28;20254;-83
2020/12/04 02:10:21;;;;;;;5.40;4.35;;;4.30;99.90;;;;;;5007263;28;20195;-82
2020/12/04 02:12:50;;;;;;;4.60;3.85;;;4.40;99.90;;;;;;5016001;28;20194;-83
2020/12/04 02:15:17;;;;;;;5.65;4.57;;;4.40;99.90;;;;;;5016662;28;20195;-83
2020/12/04 02:17:45;;;;;;;4.00;3.60;;;4.40;99.90;;;;;;5016021;28;20215;-84
2020/12/04 02:20:12;;;;;;;4.97;4.47;;;4.40;99.90;;;;;;5015730;28;21016;-81
2020/12/04 02:22:40;;;;;;;4.43;4.03;;;4.40;99.90;;;;;;5016067;28;20218;-83
2020/12/04 02:25:08;;;;;;;5.13;3.80;;;4.40;99.90;;;;;;5015747;28;20192;-83
2020/12/04 02:27:34;;;;;;;4.40;4.00;;;4.40;99.90;;;;;;5016273;28;20208;-82
2020/12/04 02:30:01;;;;;;;4.88;3.88;;;4.40;99.90;;;;;;5016496;28;20223;-84
2020/12/04 02:32:27;;;;;;;4.85;3.83;;;4.40;99.90;;;;;;5015452;28;20238;-83
2020/12/04 02:34:53;;;;;;;3.95;3.65;;;4.40;99.90;;;;;;5016432;28;20196;-82
2020/12/04 02:37:20;;;;;;;4.95;4.25;;;4.40;99.90;;;;;;5015970;28;20204;-83
2020/12/04 02:39:47;;;;;;;4.10;3.35;;;4.40;99.90;;;;;;5016537;28;20200;-82
2020/12/04 02:42:13;;;;;;;4.00;3.30;;;4.50;99.90;;;;;;5019712;28;20215;-84
2020/12/04 02:44:39;;;;;;;2.85;2.65;;;4.50;99.90;;;;;;5020025;28;20195;-83
2020/12/04 02:47:06;;;;;;;4.80;4.13;;;4.60;99.90;;;;;;5021715;28;20210;-83
2020/12/04 02:49:32;;;;;;;4.07;3.78;;;4.60;99.90;;;;;;5021460;28;20209;-82
2020/12/04 02:51:58;;;;;;;5.70;3.60;;;4.60;99.90;;;;;;5015293;28;20196;-82
2020/12/04 02:54:24;;;;;;;4.47;3.38;;;4.70;99.90;;;;;;5021723;28;20195;-82
2020/12/04 02:56:52;;;;;;;2.72;2.53;;;4.80;99.90;;;;;;5019813;28;20194;-83
2020/12/04 02:59:18;;;;;;;3.70;3.22;;;4.80;99.90;;;;;;5020022;28;20566;-81
2020/12/04 03:01:45;;;;;;;3.85;3.00;;;4.80;99.90;;;;;;5021040;28;20219;-83
2020/12/04 03:04:11;;;;;;;5.07;3.50;;;4.80;99.90;;;;;;5018844;28;20214;-81
2020/12/04 03:06:37;;;;;;;3.28;2.70;;;4.90;99.90;;;;;;5001562;28;20527;-82
2020/12/04 03:09:04;;;;;;;6.55;3.13;;;4.90;99.90;;;;;;5015198;28;20236;-81
2020/12/04 03:11:30;;;;;;;3.50;2.70;;;5.00;99.90;;;;;;5014895;28;20606;-81
2020/12/04 03:13:57;;;;;;;2.95;2.60;;;5.00;99.90;;;;;;5018215;28;20188;-83
2020/12/04 03:16:23;;;;;;;4.05;2.40;;;5.10;99.90;;;;;;5019027;28;20188;-81
2020/12/04 03:18:50;;;;;;;3.33;2.67;;;5.10;99.90;;;;;;5018532;28;20649;-83
2020/12/04 03:21:16;;;;;;;4.65;2.60;;;5.20;99.90;;;;;;5018278;28;20223;-81
2020/12/04 03:23:42;;;;;;;4.57;2.70;;;5.20;99.90;;;;;;5018897;28;20211;-82
2020/12/04 03:26:08;;;;;;;2.72;2.47;;;5.20;99.90;;;;;;5019044;28;20192;-82
2020/12/04 03:28:35;;;;;;;2.67;2.40;;;5.30;99.90;;;;;;5017876;28;20224;-81
2020/12/04 03:31:03;;;;;;;2.42;2.22;;;5.30;99.90;;;;;;5017881;28;20215;-82
2020/12/04 03:33:30;;;;;;;2.78;2.58;;;5.30;99.90;;;;;;5018310;28;20271;-81
2020/12/04 03:35:56;;;;;;;2.75;2.55;;;5.40;99.90;;;;;;5017767;28;20196;-81
2020/12/04 03:38:22;;;;;;;3.35;2.58;;;5.30;99.90;;;;;;5016312;28;20220;-83
2020/12/04 03:40:48;;;;;;;3.03;2.72;;;5.30;99.90;;;;;;5005542;28;20193;-83
2020/12/04 03:43:14;;;;;;;3.42;3.13;;;5.30;99.90;;;;;;5018212;28;20206;-83
2020/12/04 03:45:41;;;;;;;2.08;1.90;;;5.40;99.90;;;;;;5017858;28;20203;-83
2020/12/04 03:48:08;;;;;;;4.40;2.88;;;5.40;99.90;;;;;;5017915;28;20218;-83
2020/12/04 03:50:34;;;;;;;4.40;2.92;;;5.40;99.90;;;;;;5016407;28;20211;-81
2020/12/04 03:53:00;;;;;;;2.83;2.50;;;5.50;99.90;;;;;;5017752;28;20195;-82
2020/12/04 03:55:27;;;;;;;2.85;2.65;;;5.50;99.90;;;;;;5017553;28;20279;-81
2020/12/04 03:57:53;;;;;;;3.42;2.85;;;5.50;99.90;;;;;;5017587;28;20223;-81
2020/12/04 04:00:19;;;;;;;3.20;2.92;;;5.60;99.90;;;;;;5014392;28;20192;-82
2020/12/04 04:02:46;;;;;;;2.58;2.35;;;5.60;99.90;;;;;;5017966;28;20218;-82
2020/12/04 04:05:13;;;;;;;3.10;2.60;;;5.60;99.90;;;;;;5017414;28;20279;-84
2020/12/04 04:07:39;;;;;;;2.90;2.30;;;5.70;99.90;;;;;;5013673;28;20226;-83
2020/12/04 04:10:06;;;;;;;4.05;2.70;;;5.70;99.90;;;;;;5006936;28;20192;-81
2020/12/04 04:12:32;;;;;;;3.33;3.03;;;5.70;99.90;;;;;;5013400;28;20184;-82
2020/12/04 04:14:59;;;;;;;1.75;1.65;;;5.80;99.90;;;;;;5016913;28;20198;-82
2020/12/04 04:17:25;;;;;;;3.10;2.60;;;5.70;99.90;;;;;;5016705;28;20196;-81
2020/12/04 04:19:52;;;;;;;3.08;2.72;;;5.70;99.90;;;;;;5016516;28;20661;-81
2020/12/04 04:22:19;;;;;;;2.70;2.50;;;5.60;99.90;;;;;;5016677;28;20230;-81
2020/12/04 04:24:45;;;;;;;2.35;2.08;;;5.50;99.90;;;;;;5016946;28;20692;-83
2020/12/04 04:27:11;;;;;;;3.95;3.17;;;5.40;99.90;;;;;;5016122;28;20662;-85
2020/12/04 04:29:38;;;;;;;2.80;2.45;;;5.30;99.90;;;;;;5016977;28;20198;-82
2020/12/04 04:32:04;;;;;;;3.85;3.45;;;5.30;99.90;;;;;;5016252;28;20181;-82
2020/12/04 04:34:30;;;;;;;3.05;2.20;;;5.30;99.90;;;;;;5015920;28;20196;-82
2020/12/04 04:36:56;;;;;;;3.55;2.45;;;5.20;99.90;;;;;;5016108;28;20203;-83
2020/12/04 04:39:24;;;;;;;3.17;2.90;;;5.20;99.90;;;;;;5013574;28;20212;-83
2020/12/04 04:41:55;;;;;;;3.17;2.75;;;5.20;99.90;;;;;;5014475;28;20211;-83
2020/12/04 04:44:22;;;;;;;3.38;2.67;;;5.30;99.90;;;;;;5014107;28;20211;-82
2020/12/04 04:46:57;;;;;;;3.92;3.45;;;5.30;99.90;;;;;;5014376;28;20189;-81
2020/12/04 04:49:28;;;;;;;3.47;3.17;;;5.30;99.90;;;;;;5013305;28;20214;-81
2020/12/04 04:51:56;;;;;;;2.80;2.60;;;5.30;99.90;;;;;;5018736;28;20180;-82
2020/12/04 04:54:24;;;;;;;3.28;2.80;;;5.40;99.90;;;;;;5018437;28;20226;-83
2020/12/04 04:56:50;;;;;;;4.32;3.05;;;5.40;99.90;;;;;;5017305;28;20560;-85
2020/12/04 04:59:18;;;;;;;4.50;2.92;;;5.40;99.90;;;;;;5017383;28;20212;-83
2020/12/04 05:01:46;;;;;;;2.85;2.58;;;5.50;99.90;;;;;;5017119;28;20216;-84
2020/12/04 05:04:12;;;;;;;3.15;2.85;;;5.50;99.90;;;;;;5017608;28;20199;-83
2020/12/04 05:06:38;;;;;;;2.95;2.65;;;5.60;99.90;;;;;;5016143;28;20665;-83
2020/12/04 05:09:08;;;;;;;5.13;3.97;;;5.60;99.90;;;;;;5010149;28;20215;-83
2020/12/04 05:11:36;;;;;;;3.38;3.08;;;5.60;99.90;;;;;;5016790;28;20188;-83
2020/12/04 05:14:13;;;;;;;5.35;3.45;;;5.60;99.90;;;;;;5013907;28;20663;-82
2020/12/04 05:16:40;;;;;;;3.55;3.17;;;5.70;99.90;;;;;;5016647;28;20592;-83
2020/12/04 05:19:06;;;;;;;3.13;2.83;;;5.70;99.90;;;;;;5016264;28;20208;-82
2020/12/04 05:21:33;;;;;;;4.85;3.28;;;5.70;99.90;;;;;;5016827;28;20581;-82
2020/12/04 05:24:00;;;;;;;3.33;3.00;;;5.70;99.90;;;;;;5016540;28;20192;-84
2020/12/04 05:26:31;;;;;;;2.92;2.65;;;5.70;99.90;;;;;;5016401;28;20199;-83
2020/12/04 05:28:58;;;;;;;2.92;2.72;;;5.80;99.90;;;;;;5016966;28;20239;-83
2020/12/04 05:31:29;;;;;;;6.55;2.35;;;5.80;99.90;;;;;;5017254;28;20658;-83
2020/12/04 05:33:56;;;;;;;4.03;2.72;;;5.80;99.90;;;;;;5016712;28;20256;-84
2020/12/04 05:36:30;;;;;;;2.92;2.72;;;5.80;99.90;;;;;;5016875;28;20204;-85
2020/12/04 05:38:58;;;;;;;3.08;2.78;;;5.80;99.90;;;;;;5010813;28;20298;-83
2020/12/04 05:41:26;;;;;;;3.08;2.78;;;5.80;99.90;;;;;;5011527;28;20211;-83
2020/12/04 05:43:53;;;;;;;3.20;2.72;;;5.80;99.90;;;;;;5015963;28;20617;-81
2020/12/04 05:46:23;;;;;;;2.35;2.22;;;5.90;99.90;;;;;;5001157;28;20192;-82
2020/12/04 05:48:57;;;;;;;3.47;2.85;;;5.80;99.90;;;;;;4996441;28;20315;-84
2020/12/04 05:51:25;;;;;;;4.35;2.50;;;5.90;99.90;;;;;;4997836;28;20225;-83
2020/12/04 05:53:52;;;;;;;2.75;2.40;;;5.90;99.90;;;;;;4997430;28;20284;-82
2020/12/04 05:56:19;;;;;;;2.33;1.95;;;6.00;99.90;;;;;;4996581;28;20240;-82
2020/12/04 05:58:47;;;;;;;3.05;2.75;;;6.00;99.90;;;;;;4997463;28;20239;-83
2020/12/04 06:01:15;;;;;;;2.50;2.28;;;6.00;99.90;;;;;;4996600;28;20197;-80
2020/12/04 06:03:43;;;;;;;3.47;2.65;;;6.00;99.90;;;;;;4996898;28;20212;-82
2020/12/04 06:06:17;;;;;;;3.63;2.30;;;6.00;99.90;;;;;;4998102;28;20207;-82
2020/12/04 06:08:43;;;;;;;1.90;1.80;;;6.00;99.90;;;;;;4998896;28;20221;-83
2020/12/04 06:11:10;;;;;;;3.47;2.55;;;6.00;99.90;;;;;;5014853;28;20196;-81
2020/12/04 06:13:37;;;;;;;2.45;2.25;;;6.00;99.90;;;;;;5017927;28;20574;-80
2020/12/04 06:16:13;;;;;;;2.15;1.90;;;6.10;99.90;;;;;;5019575;28;20199;-80
2020/12/04 06:18:40;;;;;;;3.20;2.55;;;6.00;99.90;;;;;;5020311;28;20231;-80
2020/12/04 06:21:07;;;;;;;2.60;2.40;;;6.10;99.90;;;;;;5018412;28;20199;-79
2020/12/04 06:23:33;;;;;;;2.40;2.20;;;6.10;99.90;;;;;;5018027;28;20192;-81
2020/12/04 06:26:08;;;;;;;2.53;2.33;;;6.10;99.90;;;;;;5018763;28;20196;-78
2020/12/04 06:28:36;;;;;;;3.08;1.73;;;6.10;99.90;;;;;;5019655;28;20220;-80
2020/12/04 06:31:11;;;;;;;2.10;1.90;;;6.20;99.90;;;;;;5020046;28;20564;-80
2020/12/04 06:33:45;;;;;;;2.20;2.00;;;6.20;99.90;;;;;;5021522;28;20249;-83
2020/12/04 06:36:29;;;;;;;2.00;1.83;;;6.20;99.90;;;;;;5020439;28;20202;-80
2020/12/04 06:38:56;;;;;;;2.95;2.10;;;6.30;99.90;;;;;;5017628;28;20222;-81
2020/12/04 06:41:28;;;;;;;2.30;2.20;;;6.30;99.90;;;;;;5000490;28;20218;-84
2020/12/04 06:43:56;;;;;;;2.58;2.33;;;6.30;99.90;;;;;;5007075;28;20291;-81
2020/12/04 06:46:34;;;;;;;2.60;2.40;;;6.30;99.90;;;;;;5013052;28;20204;-81
2020/12/04 06:52:03;;;;;;;2.20;2.00;;;6.30;99.90;;;;;;5012009;28;20237;-80
2020/12/04 06:54:33;;;;;;;1.98;1.88;;;6.30;99.90;;;;;;5034700;28;20550;-84
2020/12/04 06:57:00;;;;;;;2.05;1.90;;;6.30;99.90;;;;;;5034434;28;20192;-84
2020/12/04 06:59:29;;;;;;;1.83;1.65;;;6.30;99.90;;;;;;5032747;28;20215;-83
2020/12/04 07:02:00;;;;;;;1.73;1.63;;;6.30;99.90;;;;;;5023863;28;20220;-79
2020/12/04 07:04:28;;;;;;;5.10;2.05;;;6.40;99.90;;;;;;5028061;28;20239;-81
2020/12/04 07:07:06;;;;;;;3.05;2.25;;;6.40;99.90;;;;;;5027537;28;20192;-80
2020/12/04 07:09:32;;;;;;;1.80;1.70;;;6.40;99.90;;;;;;5024812;28;20232;-82
2020/12/04 07:12:00;;;;;;;2.45;2.00;;;6.40;99.90;;;;;;5011048;28;20209;-82
2020/12/04 07:14:27;;;;;;;1.95;1.85;;;6.50;99.90;;;;;;5008550;28;20741;-80
2020/12/04 07:16:54;;;;;;;1.98;1.77;;;6.50;99.90;;;;;;5007083;28;20273;-81
2020/12/04 07:19:21;;;;;;;3.85;1.60;;;6.50;99.90;;;;;;5008176;28;20217;-81
2020/12/04 07:21:47;;;;;;;1.70;1.60;;;6.50;99.90;;;;;;5008015;28;20284;-80
2020/12/04 07:24:15;;;;;;;1.92;1.65;;;6.50;99.90;;;;;;5007890;28;20193;-79
2020/12/04 07:26:49;;;;;;;2.00;1.75;;;6.50;99.90;;;;;;5004931;28;20192;-82
2020/12/04 07:29:15;;;;;;;2.75;2.15;;;6.50;99.90;;;;;;5008004;28;20290;-81
2020/12/04 07:31:45;;;;;;;1.90;1.80;;;6.50;99.90;;;;;;5006688;28;20203;-81
2020/12/04 07:34:12;;;;;;;2.03;1.85;;;6.60;99.90;;;;;;5006912;28;20201;-81
2020/12/04 07:36:47;;;;;;;2.35;1.60;;;6.60;99.90;;;;;;5006196;28;20204;-80
2020/12/04 07:39:23;;;;;;;2.22;1.80;;;6.60;99.90;;;;;;5018217;28;20329;-81
2020/12/04 07:41:50;;;;;;;1.58;1.48;;;6.60;99.90;;;;;;5011079;28;20219;-80
2020/12/04 07:44:16;;;;;;;2.65;1.65;;;6.60;99.90;;;;;;5007599;28;20197;-80
2020/12/04 07:46:42;;;;;;;1.50;1.40;;;6.60;99.90;;;;;;5025061;28;20204;-81
2020/12/04 07:49:10;;;;;;;1.88;1.73;;;6.60;99.90;;;;;;5026965;28;20227;-80
2020/12/04 07:51:38;;;;;;;2.10;1.25;;;6.70;99.90;;;;;;5026612;28;20440;-81
2020/12/04 07:54:17;;;;;;;3.28;2.10;;;6.70;99.90;;;;;;5026271;28;20212;-82
2020/12/04 07:56:49;;;;;;;1.40;1.30;;;6.70;99.90;;;;;;5026143;28;20182;-81
2020/12/04 07:59:19;;;;;;;2.08;1.98;;;6.80;99.90;;;;;;5026238;28;20216;-81
2020/12/04 08:01:46;;;;;;;1.75;1.65;;;6.80;99.90;;;;;;5025640;28;20230;-79
2020/12/04 08:04:18;;;;;;;1.83;1.65;;;6.80;99.90;;;;;;5025811;28;20255;-81
2020/12/04 08:06:45;;;;;;;1.38;1.27;;;6.80;99.90;;;;;;5026522;28;20196;-82
2020/12/04 08:09:13;;;;;;;1.85;1.45;;;6.80;99.90;;;;;;5026140;28;20311;-80
2020/12/04 08:11:51;;;;;;;1.20;1.10;;;6.90;99.90;;;;;;5026170;28;20242;-80
2020/12/04 08:14:24;;;;;;;1.50;1.40;;;6.90;99.90;;;;;;5026469;28;20180;-78
2020/12/04 08:16:54;;;;;;;3.28;1.23;;;6.90;99.90;;;;;;5025301;28;20295;-80
2020/12/04 08:19:24;;;;;;;1.73;1.42;;;7.00;99.90;;;;;;5025745;28;20833;-80
2020/12/04 08:21:57;;;;;;;3.28;1.60;;;7.00;99.90;;;;;;5025934;28;20208;-79
2020/12/04 08:24:25;;;;;;;3.10;1.83;;;7.00;99.90;;;;;;5024499;28;20226;-79
2020/12/04 08:27:24;;;;;;;2.03;1.83;;;7.00;99.90;;;;;;5024275;28;20295;-80
2020/12/04 08:30:06;;;;;;;2.47;1.63;;;7.10;99.90;;;;;;4992681;28;20265;-78
2020/12/04 08:32:33;;;;;;;1.27;1.10;;;7.10;99.90;;;;;;5024126;28;20208;-80
2020/12/04 08:35:09;;;;;;;1.67;1.58;;;7.10;99.90;;;;;;5024418;28;20203;-79
2020/12/04 08:37:35;;;;;;;1.83;1.60;;;7.20;99.90;;;;;;5021233;28;20212;-79
2020/12/04 08:40:02;;;;;;;2.15;1.95;;;7.20;99.90;;;;;;5020371;28;20202;-79
2020/12/04 08:42:33;;;;;;;1.55;1.33;;;7.30;99.90;;;;;;5003163;28;20217;-78
2020/12/04 08:45:09;;;;;;;1.65;1.55;;;7.40;99.90;;;;;;5008449;28;20642;-82
2020/12/04 08:47:38;;;;;;;2.00;1.30;;;7.40;99.90;;;;;;5023202;28;20313;-78
2020/12/04 08:50:11;;;;;;;1.92;1.40;;;7.40;99.90;;;;;;5022912;28;20197;-78
2020/12/04 08:52:53;;;;;;;1.35;1.25;;;7.50;99.90;;;;;;5023884;28;20679;-81
2020/12/04 08:55:21;;;;;;;1.23;1.13;;;7.60;99.90;;;;;;5022346;28;20210;-81
2020/12/04 08:57:50;;;;;;;1.85;1.30;;;7.70;99.90;;;;;;5023365;28;20212;-80
2020/12/04 09:00:18;;;;;;;1.40;1.30;;;7.80;99.90;;;;;;5022592;28;20193;-78
2020/12/04 09:02:44;;;;;;;1.20;1.10;;;7.90;99.90;;;;;;5024546;28;20225;-80
2020/12/04 09:05:13;;;;;;;1.20;1.10;;;7.80;99.90;;;;;;5025085;28;20199;-79
2020/12/04 09:07:39;;;;;;;2.08;1.40;;;7.80;99.90;;;;;;5023036;28;20240;-81
2020/12/04 09:10:08;;;;;;;2.92;1.30;;;7.90;99.90;;;;;;5014766;28;20192;-80
2020/12/04 09:12:35;;;;;;;1.20;1.10;;;8.10;99.90;;;;;;5022790;28;20284;-80
2020/12/04 09:15:03;;;;;;;1.05;0.90;;;8.40;99.90;;;;;;5023853;28;20206;-78
2020/12/04 09:17:30;;;;;;;2.53;1.33;;;8.60;99.90;;;;;;5023282;28;20215;-79
2020/12/04 09:19:56;;;;;;;1.20;1.10;;;8.70;99.90;;;;;;5026082;28;20208;-78
2020/12/04 09:22:22;;;;;;;2.50;1.10;;;8.60;99.90;;;;;;5025134;28;20240;-79
2020/12/04 09:24:49;;;;;;;2.55;1.20;;;8.60;99.90;;;;;;5022810;28;20199;-81
2020/12/04 09:27:16;;;;;;;1.00;0.90;;;8.70;99.90;;;;;;5024736;28;20280;-80
2020/12/04 09:29:42;;;;;;;1.10;1.00;;;8.80;99.90;;;;;;5023584;28;20198;-78
2020/12/04 09:32:11;;;;;;;2.00;1.10;;;8.80;99.90;;;;;;5023058;28;20240;-80
2020/12/04 09:34:38;;;;;;;1.70;1.02;;;8.90;99.90;;;;;;5025171;28;20234;-80
2020/12/04 09:37:20;;;;;;;1.90;1.50;;;9.00;99.90;;;;;;5021631;28;20219;-80
2020/12/04 09:39:48;;;;;;;1.15;1.05;;;9.00;99.90;;;;;;5022668;28;20218;-81
2020/12/04 09:42:15;;;;;;;1.13;1.02;;;9.00;99.90;;;;;;5023434;28;20621;-83
2020/12/04 09:44:44;;;;;;;2.05;0.82;;;9.10;99.90;;;;;;5021373;28;20194;-82
2020/12/04 09:47:11;;;;;;;0.70;0.70;;;9.00;99.90;;;;;;5004769;28;20206;-81
2020/12/04 09:49:38;;;;;;;5.38;2.25;;;9.00;99.90;;;;;;5007873;28;20211;-81
2020/12/04 09:52:04;;;;;;;1.33;0.90;;;9.10;99.90;;;;;;5009649;28;20749;-82
2020/12/04 09:54:32;;;;;;;3.15;1.30;;;9.50;99.90;;;;;;5010019;28;20203;-81
2020/12/04 09:56:59;;;;;;;1.13;1.00;;;10.10;99.90;;;;;;5009569;28;20203;-80
2020/12/04 09:59:26;;;;;;;1.05;0.70;;;10.20;99.90;;;;;;5009508;28;20220;-83
2020/12/04 10:01:53;;;;;;;1.50;1.05;;;10.10;99.90;;;;;;5010581;28;20328;-81
2020/12/04 10:04:23;;;;;;;1.55;0.98;;;9.80;99.90;;;;;;5010712;28;20209;-82
2020/12/04 10:06:50;;;;;;;1.45;1.05;;;9.80;99.90;;;;;;5010346;28;20663;-79
2020/12/04 10:09:16;;;;;;;1.00;0.90;;;9.90;99.90;;;;;;5010334;28;20259;-78
2020/12/04 10:11:43;;;;;;;1.23;1.13;;;9.90;99.90;;;;;;5026189;28;20223;-82
2020/12/04 10:14:09;;;;;;;1.13;1.02;;;9.70;99.90;;;;;;5030274;28;20199;-81
2020/12/04 10:16:36;;;;;;;1.17;0.95;;;9.90;99.90;;;;;;5029855;28;20211;-80
2020/12/04 10:19:03;;;;;;;1.30;1.00;;;10.10;99.90;;;;;;5028659;28;20230;-82
2020/12/04 10:21:34;;;;;;;3.90;0.93;;;10.20;99.90;;;;;;5030535;28;20196;-79
2020/12/04 10:24:02;;;;;;;1.75;1.17;;;10.00;99.90;;;;;;5028986;28;20203;-80
2020/12/04 10:26:29;;;;;;;2.17;0.80;;;10.10;99.90;;;;;;5029142;28;20248;-79
2020/12/04 10:28:55;;;;;;;0.80;0.70;;;10.00;99.90;;;;;;5029420;28;20222;-84
2020/12/04 10:31:22;;;;;;;1.38;0.90;;;9.40;99.90;;;;;;5028337;28;20214;-80
2020/12/04 10:33:48;;;;;;;2.95;1.13;;;9.40;99.90;;;;;;5029666;28;20301;-79
2020/12/04 10:36:15;;;;;;;3.05;0.95;;;9.50;99.90;;;;;;5028488;28;20261;-79
2020/12/04 10:38:42;;;;;;;1.20;0.73;;;9.80;99.90;;;;;;5028665;28;20223;-80
2020/12/04 10:41:09;;;;;;;2.35;0.80;;;9.90;99.90;;;;;;5018064;28;20211;-79
2020/12/04 10:43:36;;;;;;;1.23;0.88;;;10.20;99.90;;;;;;5008680;28;20242;-80
2020/12/04 10:46:02;;;;;;;1.98;1.10;;;10.50;99.90;;;;;;5021789;28;20203;-79
2020/12/04 10:48:28;;;;;;;1.17;1.00;;;10.60;99.90;;;;;;5028143;28;20219;-81
2020/12/04 10:50:54;;;;;;;2.35;1.02;;;10.50;99.90;;;;;;5029131;28;20234;-79
2020/12/04 10:53:24;;;;;;;2.97;0.90;;;10.20;99.90;;;;;;5029077;28;20282;-81
2020/12/04 10:55:51;;;;;;;0.73;0.65;;;10.20;99.90;;;;;;5027460;28;20203;-79
2020/12/04 10:58:17;;;;;;;1.02;0.95;;;9.80;99.90;;;;;;5027945;28;20301;-83
2020/12/04 11:00:47;;;;;;;2.30;0.82;;;9.70;99.90;;;;;;5027773;28;20703;-82
2020/12/04 11:03:19;;;;;;;4.03;0.90;;;9.50;99.90;;;;;;5028542;28;20210;-82
2020/12/04 11:05:46;;;;;;;2.70;0.75;;;9.40;99.90;;;;;;5028760;28;20301;-81
2020/12/04 11:08:13;;;;;;;0.95;0.95;;;9.60;99.90;;;;;;5027801;28;20222;-79
2020/12/04 11:10:40;;;;;;;4.93;0.93;;;9.70;99.90;;;;;;5028842;28;20202;-79
2020/12/04 11:13:07;;;;;;;7.43;1.35;;;9.70;99.90;;;;;;5029079;28;20557;-81
2020/12/04 11:15:34;;;;;;;3.28;0.90;;;9.70;99.90;;;;;;5028833;28;20286;-81
2020/12/04 11:18:00;;;;;;;5.03;1.35;;;9.80;99.90;;;;;;5029107;28;20229;-81
2020/12/04 11:20:27;;;;;;;2.25;0.90;;;9.70;99.90;;;;;;5028399;28;20259;-80
2020/12/04 11:22:53;;;;;;;1.30;1.00;;;9.50;99.90;;;;;;5028728;28;20250;-80
2020/12/04 11:25:21;;;;;;;1.30;1.08;;;9.30;99.90;;;;;;5029149;28;20196;-81
2020/12/04 11:27:48;;;;;;;2.67;0.95;;;9.20;99.90;;;;;;5028838;28;20214;-82
2020/12/04 11:30:17;;;;;;;3.55;1.02;;;9.10;99.90;;;;;;5028422;28;20202;-80
2020/12/04 11:32:45;;;;;;;1.38;1.27;;;9.10;99.90;;;;;;5028581;28;20218;-80
2020/12/04 11:35:12;;;;;;;0.95;0.80;;;9.30;99.90;;;;;;5027660;28;20194;-80
2020/12/04 11:37:40;;;;;;;1.50;1.25;;;9.30;99.90;;;;;;5028011;28;20230;-79
2020/12/04 11:40:09;;;;;;;3.67;1.10;;;9.40;99.90;;;;;;5020147;28;20204;-81
2020/12/04 11:42:37;;;;;;;0.93;0.85;;;9.30;99.90;;;;;;5028259;28;20238;-81
2020/12/04 11:45:04;;;;;;;3.22;1.10;;;9.20;99.90;;;;;;5023017;28;20574;-81
2020/12/04 11:47:31;;;;;;;0.90;0.80;;;9.10;99.90;;;;;;5008174;28;20222;-83
2020/12/04 11:49:58;;;;;;;10.98;1.60;;;9.10;99.90;;;;;;5008310;28;20198;-81
2020/12/04 11:52:24;;;;;;;2.72;1.50;;;9.10;99.90;;;;;;5008266;28;20194;-80
2020/12/04 11:54:50;;;;;;;1.20;1.02;;;9.10;99.90;;;;;;5007802;28;20197;-80
2020/12/04 11:57:16;;;;;;;2.45;1.10;;;9.10;99.90;;;;;;5007394;28;20209;-80
2020/12/04 11:59:42;;;;;;;2.35;1.05;;;9.10;99.90;;;;;;5006952;28;20293;-81
2020/12/04 12:02:09;;;;;;;2.00;0.95;;;9.20;99.90;;;;;;5007475;28;20223;-78
2020/12/04 12:04:36;;;;;;;2.15;1.95;;;9.20;99.90;;;;;;5008206;28;20196;-81
2020/12/04 12:07:02;;;;;;;2.40;1.20;;;9.10;99.90;;;;;;4989302;28;20210;-81
2020/12/04 12:09:29;;;;;;;1.92;1.45;;;9.00;99.90;;;;;;5012631;28;20229;-80
2020/12/04 12:11:55;;;;;;;4.60;1.23;;;9.00;99.90;;;;;;5025697;28;20202;-80
2020/12/04 12:14:21;;;;;;;3.40;1.50;;;8.90;99.90;;;;;;5027811;28;20267;-80
2020/12/04 12:16:48;;;;;;;5.15;1.40;;;8.90;99.90;;;;;;5027331;28;20204;-84
2020/12/04 12:19:15;;;;;;;5.88;2.05;;;8.90;99.90;;;;;;5026893;28;20242;-80
2020/12/04 12:21:43;;;;;;;2.25;0.95;;;8.90;99.90;;;;;;5027410;28;20198;-79
2020/12/04 12:24:10;;;;;;;1.90;1.40;;;8.80;99.90;;;;;;5026902;28;20227;-80
2020/12/04 12:26:37;;;;;;;2.67;1.30;;;8.80;99.90;;;;;;5025830;28;20200;-81
2020/12/04 12:29:03;;;;;;;4.53;1.10;;;8.60;99.90;;;;;;5026319;28;20226;-81
2020/12/04 12:31:30;;;;;;;4.50;1.50;;;8.70;99.90;;;;;;5027155;28;20203;-81
2020/12/04 12:33:56;;;;;;;4.72;1.45;;;8.70;99.90;;;;;;5026306;28;20253;-81
2020/12/04 12:36:23;;;;;;;3.10;1.30;;;8.70;99.90;;;;;;5026825;28;20588;-81
2020/12/04 12:38:50;;;;;;;4.50;1.50;;;8.80;99.90;;;;;;5026156;28;20222;-80
2020/12/04 12:41:16;;;;;;;1.50;1.40;;;8.90;99.90;;;;;;5006008;28;20212;-82
2020/12/04 12:43:42;;;;;;;1.17;1.08;;;8.80;99.90;;;;;;5006298;28;20233;-80
2020/12/04 12:46:09;;;;;;;1.05;0.95;;;8.80;99.90;;;;;;5020841;28;20690;-81
2020/12/04 12:48:35;;;;;;;1.13;1.02;;;8.80;99.90;;;;;;5026665;28;20233;-81
2020/12/04 12:51:02;;;;;;;1.98;1.05;;;8.80;99.90;;;;;;5026737;28;20232;-79
2020/12/04 12:53:28;;;;;;;6.15;1.40;;;8.70;99.90;;;;;;5026661;28;20257;-79
2020/12/04 12:55:55;;;;;;;2.00;0.88;;;8.80;99.90;;;;;;5024740;28;20207;-81
2020/12/04 12:58:21;;;;;;;1.08;0.80;;;8.80;99.90;;;;;;5026385;28;20224;-81
2020/12/04 13:00:47;;;;;;;1.95;0.98;;;8.70;99.90;;;;;;5026342;28;20200;-82